createdAt,value
2023-04-05T00:00:20.757Z,78.89
2023-04-05T00:01:22.452Z,79.39
2023-04-05T00:02:24.787Z,78.64
2023-04-05T00:03:26.618Z,78.46
2023-04-05T00:04:28.830Z,78.49
2023-04-05T00:05:30.681Z,78.47
2023-04-05T00:06:32.338Z,79.05
2023-04-05T00:07:34.311Z,78.46
2023-04-05T00:08:36.064Z,79.05
2023-04-05T00:09:37.673Z,79.72
2023-04-05T00:10:39.922Z,80.15
2023-04-05T00:11:41.690Z,79.26
2023-04-05T00:12:43.227Z,79.25
2023-04-05T00:13:44.851Z,79.18
2023-04-05T00:14:46.535Z,79.39
2023-04-05T00:15:49.115Z,79.23
2023-04-05T00:16:50.887Z,78.85
2023-04-05T00:17:54.266Z,78.48
2023-04-05T00:19:00.251Z,79.01
2023-04-05T00:20:02.256Z,79.20
2023-04-05T00:21:04.240Z,78.90
2023-04-05T00:22:05.760Z,78.54
2023-04-05T00:23:10.537Z,79.06
2023-04-05T00:24:15.481Z,78.91
2023-04-05T00:25:18.427Z,78.76
2023-04-05T00:26:21.378Z,78.99
2023-04-05T00:27:22.869Z,78.67
2023-04-05T00:28:24.489Z,78.39
2023-04-05T00:29:26.052Z,78.56
2023-04-05T00:30:29.170Z,78.87
2023-04-05T00:31:30.967Z,79.10
2023-04-05T00:32:32.908Z,79.14
2023-04-05T00:33:34.611Z,79.56
2023-04-05T00:34:36.205Z,78.28
2023-04-05T00:35:37.751Z,78.48
2023-04-05T00:36:39.364Z,78.35
2023-04-05T00:37:40.946Z,78.89
2023-04-05T00:38:43.519Z,77.92
2023-04-05T00:39:45.254Z,78.18
2023-04-05T00:40:46.805Z,79.40
2023-04-05T00:41:48.831Z,79.15
2023-04-05T00:42:50.666Z,79.14
2023-04-05T00:43:52.270Z,78.36
2023-04-05T00:44:53.765Z,78.11
2023-04-05T00:45:56.377Z,78.02
2023-04-05T00:46:57.902Z,78.21
2023-04-05T00:48:00.468Z,78.94
2023-04-05T00:49:02.597Z,78.99
2023-04-05T00:50:05.921Z,77.87
2023-04-05T00:51:11.616Z,77.61
2023-04-05T00:52:14.764Z,77.53
2023-04-05T00:53:21.727Z,78.42
2023-04-05T00:54:25.587Z,77.84
2023-04-05T00:55:27.747Z,77.54
2023-04-05T00:56:30.521Z,77.83
2023-04-05T00:57:32.320Z,78.78
2023-04-05T00:58:33.941Z,77.67
2023-04-05T00:59:35.702Z,78.03
2023-04-05T01:00:39.858Z,78.98
2023-04-05T01:01:41.971Z,79.48
2023-04-05T01:02:57.935Z,78.90
2023-04-05T01:04:03.608Z,78.93
2023-04-05T01:05:21.926Z,79.23
2023-04-05T01:06:27.530Z,79.02
2023-04-05T01:07:37.109Z,79.22
2023-04-05T01:08:55.948Z,79.55
2023-04-05T01:09:59.919Z,80.26
2023-04-05T01:11:05.618Z,80.09
2023-04-05T01:12:09.993Z,80.10
2023-04-05T01:13:11.576Z,80.73
2023-04-05T01:14:13.200Z,80.41
2023-04-05T01:15:14.890Z,79.86
2023-04-05T01:16:17.029Z,80.40
2023-04-05T01:17:23.332Z,81.21
2023-04-05T01:18:26.248Z,80.21
2023-04-05T01:19:30.152Z,81.31
2023-04-05T01:20:37.410Z,80.37
2023-04-05T01:22:26.440Z,80.17
2023-04-05T01:23:58.639Z,80.74
2023-04-05T01:25:41.695Z,80.51
2023-04-05T01:26:46.212Z,81.09
2023-04-05T01:28:19.153Z,81.20
2023-04-05T01:29:42.046Z,81.68
2023-04-05T01:30:51.851Z,81.49
2023-04-05T01:32:03.028Z,81.24
2023-04-05T01:33:23.761Z,81.05
2023-04-05T01:34:31.339Z,81.92
2023-04-05T01:35:59.534Z,81.01
2023-04-05T01:37:08.589Z,80.75
2023-04-05T01:38:14.849Z,80.54
2023-04-05T01:39:21.319Z,81.18
2023-04-05T01:40:23.676Z,80.38
2023-04-05T01:41:26.553Z,81.68
2023-04-05T01:42:28.196Z,81.58
2023-04-05T01:43:29.738Z,81.90
2023-04-05T01:44:31.399Z,81.21
2023-04-05T01:45:32.953Z,80.41
2023-04-05T01:46:34.849Z,81.45
2023-04-05T01:47:36.498Z,81.46
2023-04-05T01:48:38.047Z,80.66
2023-04-05T01:49:39.615Z,80.71
2023-04-05T01:50:41.427Z,81.24
2023-04-05T01:51:43.167Z,80.84
2023-04-05T01:52:44.752Z,80.79
2023-04-05T01:53:46.292Z,80.71
2023-04-05T01:54:47.822Z,80.42
2023-04-05T01:55:49.317Z,80.40
2023-04-05T01:56:50.973Z,81.26
2023-04-05T01:57:55.729Z,80.45
2023-04-05T01:58:57.295Z,81.41
2023-04-05T01:59:58.864Z,81.44
2023-04-05T02:01:00.516Z,80.88
2023-04-05T02:02:02.140Z,80.74
2023-04-05T02:03:03.788Z,81.52
2023-04-05T02:04:05.389Z,81.02
2023-04-05T02:05:07.392Z,80.97
2023-04-05T02:06:08.931Z,80.74
2023-04-05T02:07:10.672Z,81.14
2023-04-05T02:08:13.356Z,81.49
2023-04-05T02:09:14.901Z,80.98
2023-04-05T02:10:16.539Z,81.04
2023-04-05T02:11:18.136Z,80.64
2023-04-05T02:12:19.780Z,80.36
2023-04-05T02:13:23.951Z,80.67
2023-04-05T02:14:25.949Z,80.29
2023-04-05T02:15:27.520Z,80.27
2023-04-05T02:16:33.469Z,80.19
2023-04-05T02:17:39.169Z,80.47
2023-04-05T02:18:41.498Z,81.89
2023-04-05T02:19:46.846Z,81.21
2023-04-05T02:20:51.783Z,81.67
2023-04-05T02:21:56.445Z,81.27
2023-04-05T02:22:58.537Z,81.57
2023-04-05T02:24:00.470Z,81.38
2023-04-05T02:25:03.499Z,81.30
2023-04-05T02:26:05.448Z,81.52
2023-04-05T02:27:07.635Z,81.74
2023-04-05T02:28:11.374Z,81.47
2023-04-05T02:29:13.587Z,81.48
2023-04-05T02:30:15.319Z,81.66
2023-04-05T02:31:16.976Z,82.28
2023-04-05T02:32:18.514Z,82.30
2023-04-05T02:33:22.579Z,82.05
2023-04-05T02:34:24.160Z,82.24
2023-04-05T02:35:25.818Z,82.41
2023-04-05T02:36:30.453Z,82.92
2023-04-05T02:37:31.982Z,83.13
2023-04-05T02:38:34.084Z,82.74
2023-04-05T02:39:35.625Z,82.20
2023-04-05T02:40:37.598Z,83.12
2023-04-05T02:41:39.166Z,83.03
2023-04-05T02:42:41.370Z,82.74
2023-04-05T02:43:43.197Z,81.89
2023-04-05T02:44:44.775Z,82.89
2023-04-05T02:45:47.066Z,82.62
2023-04-05T02:46:48.771Z,82.95
2023-04-05T02:47:50.340Z,83.09
2023-04-05T02:48:52.460Z,82.24
2023-04-05T02:49:54.028Z,81.45
2023-04-05T02:50:56.040Z,82.16
2023-04-05T02:51:57.586Z,82.11
2023-04-05T02:52:59.140Z,82.21
2023-04-05T02:54:02.777Z,82.16
2023-04-05T02:55:07.714Z,83.14
2023-04-05T02:56:09.240Z,83.33
2023-04-05T02:57:11.693Z,83.20
2023-04-05T02:58:14.418Z,83.30
2023-04-05T02:59:16.340Z,83.69
2023-04-05T03:00:18.648Z,84.13
2023-04-05T03:01:20.373Z,83.78
2023-04-05T03:02:21.983Z,83.84
2023-04-05T03:03:23.802Z,83.69
2023-04-05T03:04:26.980Z,84.25
2023-04-05T03:05:28.833Z,84.08
2023-04-05T03:06:31.607Z,84.22
2023-04-05T03:07:33.366Z,83.67
2023-04-05T03:08:36.967Z,83.88
2023-04-05T03:09:39.268Z,83.82
2023-04-05T03:10:45.074Z,83.90
2023-04-05T03:11:46.686Z,84.33
2023-04-05T03:12:48.529Z,83.89
2023-04-05T03:13:50.255Z,84.46
2023-04-05T03:14:51.855Z,84.42
2023-04-05T03:15:56.542Z,84.73
2023-04-05T03:16:58.342Z,85.17
2023-04-05T03:18:00.098Z,84.44
2023-04-05T03:19:02.515Z,84.85
2023-04-05T03:20:09.021Z,85.46
2023-04-05T03:21:11.447Z,85.41
2023-04-05T03:22:13.014Z,85.52
2023-04-05T03:23:14.527Z,85.56
2023-04-05T03:24:17.035Z,85.76
2023-04-05T03:25:19.065Z,86.78
2023-04-05T03:26:20.640Z,86.41
2023-04-05T03:27:22.192Z,86.51
2023-04-05T03:28:24.577Z,85.71
2023-04-05T03:29:26.172Z,86.06
2023-04-05T03:30:28.275Z,86.75
2023-04-05T03:31:30.639Z,86.53
2023-04-05T03:32:32.393Z,86.40
2023-04-05T03:33:34.428Z,86.10
2023-04-05T03:34:35.987Z,86.36
2023-04-05T03:35:37.577Z,85.92
2023-04-05T03:36:42.673Z,85.87
2023-04-05T03:37:44.301Z,85.70
2023-04-05T03:38:46.083Z,85.74
2023-04-05T03:39:48.392Z,85.34
2023-04-05T03:40:49.989Z,85.59
2023-04-05T03:41:51.564Z,85.66
2023-04-05T03:42:53.179Z,85.77
2023-04-05T03:43:54.679Z,85.62
2023-04-05T03:44:56.395Z,85.94
2023-04-05T03:45:58.275Z,85.21
2023-04-05T03:46:59.876Z,85.46
2023-04-05T03:48:03.357Z,85.61
2023-04-05T03:49:06.172Z,85.84
2023-04-05T03:50:08.808Z,85.41
2023-04-05T03:51:10.349Z,84.92
2023-04-05T03:52:11.870Z,85.97
2023-04-05T03:53:13.467Z,85.87
2023-04-05T03:54:15.023Z,85.68
2023-04-05T03:55:19.241Z,86.12
2023-04-05T03:56:22.084Z,85.63
2023-04-05T03:57:23.793Z,86.39
2023-04-05T03:58:28.399Z,86.50
2023-04-05T03:59:30.139Z,86.85
2023-04-05T04:00:31.926Z,85.65
2023-04-05T04:01:33.439Z,85.81
2023-04-05T04:02:35.003Z,85.89
2023-04-05T04:03:37.446Z,86.41
2023-04-05T04:04:39.084Z,86.33
2023-04-05T04:05:41.052Z,85.81
2023-04-05T04:06:43.012Z,86.05
2023-04-05T04:07:44.990Z,85.80
2023-04-05T04:08:46.550Z,85.77
2023-04-05T04:09:48.098Z,85.32
2023-04-05T04:10:50.391Z,85.71
2023-04-05T04:11:51.953Z,85.73
2023-04-05T04:12:53.473Z,85.74
2023-04-05T04:13:55.078Z,84.48
2023-04-05T04:14:56.823Z,84.45
2023-04-05T04:15:58.946Z,84.42
2023-04-05T04:17:00.526Z,85.09
2023-04-05T04:18:02.161Z,84.97
2023-04-05T04:19:03.720Z,84.98
2023-04-05T04:20:11.043Z,84.32
2023-04-05T04:21:13.605Z,85.31
2023-04-05T04:22:20.649Z,84.46
2023-04-05T04:23:22.649Z,84.48
2023-04-05T04:24:27.103Z,84.48
2023-04-05T04:25:31.000Z,84.63
2023-04-05T04:26:37.573Z,84.90
2023-04-05T04:27:42.017Z,85.06
2023-04-05T04:28:43.928Z,84.59
2023-04-05T04:29:48.235Z,84.01
2023-04-05T04:30:49.820Z,84.08
2023-04-05T04:31:51.526Z,84.06
2023-04-05T04:32:53.740Z,84.72
2023-04-05T04:33:55.521Z,84.64
2023-04-05T04:34:58.664Z,86.17
2023-04-05T04:36:02.846Z,85.20
2023-04-05T04:37:04.415Z,84.24
2023-04-05T04:38:07.568Z,83.61
2023-04-05T04:39:10.326Z,83.40
2023-04-05T04:40:15.666Z,83.49
2023-04-05T04:41:20.163Z,84.22
2023-04-05T04:42:22.832Z,83.65
2023-04-05T04:43:26.813Z,84.63
2023-04-05T04:44:31.430Z,84.43
2023-04-05T04:45:38.159Z,83.83
2023-04-05T04:46:43.253Z,84.19
2023-04-05T04:47:47.194Z,84.79
2023-04-05T04:48:48.913Z,85.06
2023-04-05T04:49:50.607Z,85.54
2023-04-05T04:50:52.136Z,86.08
2023-04-05T04:51:53.817Z,84.79
2023-04-05T04:52:55.528Z,85.58
2023-04-05T04:53:57.066Z,85.11
2023-04-05T04:54:59.265Z,85.86
2023-04-05T04:56:00.796Z,85.48
2023-04-05T04:57:03.044Z,84.79
2023-04-05T04:58:10.253Z,84.32
2023-04-05T04:59:11.859Z,84.27
2023-04-05T05:00:15.553Z,84.59
2023-04-05T05:01:17.144Z,84.65
2023-04-05T05:02:18.751Z,83.95
2023-04-05T05:03:22.396Z,84.47
2023-04-05T05:04:24.700Z,84.51
2023-04-05T05:05:27.548Z,84.81
2023-04-05T05:06:29.900Z,85.09
2023-04-05T05:07:31.464Z,84.91
2023-04-05T05:08:33.220Z,85.33
2023-04-05T05:09:34.891Z,85.55
2023-04-05T05:10:36.549Z,85.50
2023-04-05T05:11:38.065Z,84.79
2023-04-05T05:12:39.662Z,84.35
2023-04-05T05:13:41.807Z,85.21
2023-04-05T05:14:43.395Z,85.38
2023-04-05T05:15:44.906Z,84.84
2023-04-05T05:16:46.452Z,84.57
2023-04-05T05:17:52.936Z,85.03
2023-04-05T05:18:55.458Z,85.15
2023-04-05T05:19:56.989Z,85.18
2023-04-05T05:20:58.524Z,84.38
2023-04-05T05:22:00.039Z,84.99
2023-04-05T05:23:03.945Z,84.39
2023-04-05T05:24:07.521Z,83.36
2023-04-05T05:25:10.027Z,83.36
2023-04-05T05:26:13.244Z,82.68
2023-04-05T05:27:14.978Z,82.22
2023-04-05T05:28:17.464Z,82.85
2023-04-05T05:29:20.622Z,83.04
2023-04-05T05:30:22.471Z,82.55
2023-04-05T05:31:24.211Z,82.05
2023-04-05T05:32:25.966Z,83.22
2023-04-05T05:33:27.588Z,82.23
2023-04-05T05:34:29.187Z,82.23
2023-04-05T05:35:30.817Z,82.22
2023-04-05T05:36:32.801Z,82.23
2023-04-05T05:37:35.016Z,81.97
2023-04-05T05:38:36.581Z,82.56
2023-04-05T05:39:38.278Z,82.77
2023-04-05T05:40:40.028Z,82.14
2023-04-05T05:41:42.731Z,82.01
2023-04-05T05:42:45.286Z,82.43
2023-04-05T05:43:48.437Z,82.82
2023-04-05T05:44:50.038Z,82.95
2023-04-05T05:45:51.647Z,81.49
2023-04-05T05:46:53.231Z,81.46
2023-04-05T05:47:56.807Z,81.54
2023-04-05T05:48:58.412Z,81.58
2023-04-05T05:50:00.135Z,81.66
2023-04-05T05:51:02.302Z,80.49
2023-04-05T05:52:04.433Z,81.86
2023-04-05T05:53:06.186Z,81.22
2023-04-05T05:54:07.716Z,81.15
2023-04-05T05:55:09.525Z,80.95
2023-04-05T05:56:11.498Z,80.86
2023-04-05T05:57:13.153Z,80.23
2023-04-05T05:58:14.728Z,80.54
2023-04-05T05:59:16.416Z,79.89
2023-04-05T06:00:18.853Z,79.85
2023-04-05T06:01:23.090Z,80.89
2023-04-05T06:02:24.728Z,80.59
2023-04-05T06:03:26.538Z,80.41
2023-04-05T06:04:29.250Z,80.75
2023-04-05T06:05:30.882Z,79.94
2023-04-05T06:06:36.020Z,80.69
2023-04-05T06:07:39.365Z,79.93
2023-04-05T06:08:40.950Z,80.24
2023-04-05T06:09:42.769Z,80.34
2023-04-05T06:10:44.340Z,79.48
2023-04-05T06:11:55.933Z,79.43
2023-04-05T06:12:59.200Z,78.63
2023-04-05T06:14:00.863Z,79.13
2023-04-05T06:15:02.694Z,79.72
2023-04-05T06:16:04.643Z,79.81
2023-04-05T06:17:06.225Z,79.39
2023-04-05T06:18:07.885Z,79.57
2023-04-05T06:19:09.616Z,78.86
2023-04-05T06:20:11.926Z,79.77
2023-04-05T06:21:14.398Z,79.78
2023-04-05T06:22:16.627Z,79.32
2023-04-05T06:23:21.309Z,78.24
2023-04-05T06:24:23.386Z,79.16
2023-04-05T06:25:25.055Z,78.78
2023-04-05T06:26:30.132Z,79.27
2023-04-05T06:27:31.981Z,80.80
2023-04-05T06:28:33.559Z,80.67
2023-04-05T06:29:35.121Z,80.22
2023-04-05T06:30:36.661Z,80.59
2023-04-05T06:31:38.314Z,79.45
2023-04-05T06:32:39.948Z,80.18
2023-04-05T06:33:41.943Z,78.35
2023-04-05T06:34:46.484Z,79.52
2023-04-05T06:35:48.139Z,78.19
2023-04-05T06:36:50.114Z,77.76
2023-04-05T06:37:51.905Z,78.20
2023-04-05T06:38:53.565Z,78.78
2023-04-05T06:39:55.180Z,79.24
2023-04-05T06:40:56.723Z,78.66
2023-04-05T06:41:58.285Z,79.08
2023-04-05T06:42:59.802Z,78.66
2023-04-05T06:44:01.351Z,77.99
2023-04-05T06:45:04.354Z,76.94
2023-04-05T06:46:08.986Z,76.85
2023-04-05T06:47:10.589Z,77.47
2023-04-05T06:48:12.189Z,78.72
2023-04-05T06:49:13.871Z,78.06
2023-04-05T06:50:15.795Z,77.30
2023-04-05T06:51:18.654Z,77.59
2023-04-05T06:52:20.320Z,78.04
2023-04-05T06:53:22.485Z,78.38
2023-04-05T06:54:24.969Z,78.41
2023-04-05T06:55:26.622Z,78.35
2023-04-05T06:56:28.563Z,77.85
2023-04-05T06:57:30.159Z,77.70
2023-04-05T06:58:31.759Z,77.99
2023-04-05T06:59:33.585Z,77.67
2023-04-05T07:00:35.174Z,77.74
2023-04-05T07:01:36.722Z,75.93
2023-04-05T07:02:38.347Z,76.60
2023-04-05T07:03:39.961Z,76.00
2023-04-05T07:04:41.521Z,75.65
2023-04-05T07:05:57.453Z,77.13
2023-04-05T07:07:02.193Z,76.20
2023-04-05T07:08:04.006Z,75.74
2023-04-05T07:09:05.677Z,75.90
2023-04-05T07:10:07.801Z,75.47
2023-04-05T07:11:09.379Z,76.84
2023-04-05T07:12:11.059Z,75.92
2023-04-05T07:13:12.616Z,74.88
2023-04-05T07:14:14.212Z,75.04
2023-04-05T07:15:15.981Z,73.29
2023-04-05T07:16:19.436Z,73.44
2023-04-05T07:17:21.786Z,74.83
2023-04-05T07:18:23.337Z,75.20
2023-04-05T07:19:24.942Z,75.93
2023-04-05T07:20:26.532Z,75.55
2023-04-05T07:21:28.138Z,75.11
2023-04-05T07:22:29.728Z,75.10
2023-04-05T07:23:31.398Z,74.35
2023-04-05T07:24:33.323Z,74.44
2023-04-05T07:25:34.871Z,74.48
2023-04-05T07:26:37.692Z,73.73
2023-04-05T07:27:39.920Z,74.77
2023-04-05T07:28:42.086Z,75.45
2023-04-05T07:29:45.939Z,74.99
2023-04-05T07:30:49.377Z,75.27
2023-04-05T07:31:51.099Z,74.34
2023-04-05T07:32:52.846Z,74.25
2023-04-05T07:33:54.464Z,74.92
2023-04-05T07:34:56.790Z,74.34
2023-04-05T07:35:58.855Z,73.80
2023-04-05T07:37:00.734Z,73.83
2023-04-05T07:38:02.641Z,74.31
2023-04-05T07:39:05.343Z,74.20
2023-04-05T07:40:07.798Z,74.18
2023-04-05T07:41:09.323Z,74.59
2023-04-05T07:42:10.953Z,72.75
2023-04-05T07:43:12.719Z,73.80
2023-04-05T07:44:14.297Z,73.12
2023-04-05T07:45:15.949Z,73.06
2023-04-05T07:46:17.855Z,73.01
2023-04-05T07:47:19.465Z,73.03
2023-04-05T07:48:21.132Z,73.00
2023-04-05T07:49:28.861Z,73.35
2023-04-05T07:50:30.498Z,72.73
2023-04-05T07:51:35.258Z,73.24
2023-04-05T07:52:36.842Z,73.71
2023-04-05T07:53:38.444Z,71.85
2023-04-05T07:54:41.514Z,72.91
2023-04-05T07:55:43.503Z,72.01
2023-04-05T07:56:45.125Z,72.19
2023-04-05T07:57:47.391Z,72.49
2023-04-05T07:58:50.537Z,71.86
2023-04-05T07:59:54.858Z,70.68
2023-04-05T08:01:03.920Z,71.26
2023-04-05T08:02:14.151Z,71.57
2023-04-05T08:03:16.045Z,71.38
2023-04-05T08:04:19.093Z,70.87
2023-04-05T08:05:20.906Z,71.49
2023-04-05T08:06:22.494Z,71.15
2023-04-05T08:07:24.408Z,70.47
2023-04-05T08:08:26.085Z,69.66
2023-04-05T08:09:27.628Z,70.40
2023-04-05T08:10:29.215Z,69.05
2023-04-05T08:11:32.037Z,68.56
2023-04-05T08:12:34.844Z,69.79
2023-04-05T08:13:39.905Z,68.78
2023-04-05T08:14:41.530Z,68.38
2023-04-05T08:15:43.081Z,70.93
2023-04-05T08:16:44.721Z,68.80
2023-04-05T08:17:46.496Z,68.88
2023-04-05T08:18:48.143Z,69.63
2023-04-05T08:19:49.779Z,70.10
2023-04-05T08:20:52.517Z,69.59
2023-04-05T08:21:54.094Z,69.81
2023-04-05T08:22:55.659Z,69.86
2023-04-05T08:23:58.205Z,70.28
2023-04-05T08:24:59.773Z,70.78
2023-04-05T08:26:01.723Z,69.74
2023-04-05T08:27:03.304Z,69.80
2023-04-05T08:28:05.536Z,69.68
2023-04-05T08:29:07.074Z,67.84
2023-04-05T08:30:09.229Z,67.88
2023-04-05T08:31:13.431Z,68.39
2023-04-05T08:32:15.638Z,66.90
2023-04-05T08:33:17.510Z,67.28
2023-04-05T08:34:19.148Z,67.88
2023-04-05T08:35:20.881Z,67.50
2023-04-05T08:36:22.431Z,66.30
2023-04-05T08:37:24.043Z,66.07
2023-04-05T08:38:26.505Z,66.44
2023-04-05T08:39:28.173Z,65.96
2023-04-05T08:40:48.508Z,66.75
2023-04-05T08:42:17.277Z,65.49
2023-04-05T08:43:26.056Z,65.68
2023-04-05T08:44:31.793Z,65.00
2023-04-05T08:45:34.546Z,66.03
2023-04-05T08:46:36.665Z,66.90
2023-04-05T08:47:41.307Z,67.23
2023-04-05T08:48:43.157Z,65.55
2023-04-05T08:49:45.457Z,64.88
2023-04-05T08:50:51.721Z,65.76
2023-04-05T08:51:54.694Z,64.04
2023-04-05T08:52:56.277Z,63.98
2023-04-05T08:53:59.951Z,65.16
2023-04-05T08:55:01.550Z,64.64
2023-04-05T08:56:04.263Z,64.24
2023-04-05T08:57:07.694Z,63.96
2023-04-05T08:58:13.797Z,65.45
2023-04-05T08:59:16.968Z,64.36
2023-04-05T09:00:19.616Z,65.72
2023-04-05T09:01:21.739Z,64.59
2023-04-05T09:02:25.217Z,64.85
2023-04-05T09:03:36.570Z,65.73
2023-04-05T09:04:44.823Z,64.76
2023-04-05T09:05:49.968Z,64.73
2023-04-05T09:06:52.753Z,63.83
2023-04-05T09:07:57.190Z,64.06
2023-04-05T09:08:58.996Z,63.40
2023-04-05T09:10:01.762Z,64.16
2023-04-05T09:11:03.407Z,63.66
2023-04-05T09:12:06.024Z,63.74
2023-04-05T09:13:11.316Z,63.69
2023-04-05T09:14:12.924Z,64.43
2023-04-05T09:15:16.065Z,63.99
2023-04-05T09:16:18.396Z,62.98
2023-04-05T09:17:19.978Z,63.39
2023-04-05T09:18:26.986Z,62.75
2023-04-05T09:19:29.196Z,62.93
2023-04-05T09:20:30.874Z,62.64
2023-04-05T09:22:01.341Z,63.98
2023-04-05T09:23:03.254Z,63.11
2023-04-05T09:24:05.200Z,62.89
2023-04-05T09:25:07.190Z,64.55
2023-04-05T09:26:23.872Z,63.37
2023-04-05T09:27:25.692Z,62.19
2023-04-05T09:28:47.630Z,62.76
2023-04-05T09:29:50.502Z,62.12
2023-04-05T09:30:52.039Z,62.26
2023-04-05T09:31:54.615Z,62.09
2023-04-05T09:32:57.273Z,63.14
2023-04-05T09:34:03.662Z,63.18
2023-04-05T09:35:05.913Z,60.80
2023-04-05T09:36:07.781Z,62.57
2023-04-05T09:37:20.082Z,63.15
2023-04-05T09:38:42.394Z,63.03
2023-04-05T09:39:44.847Z,61.43
2023-04-05T09:40:48.276Z,62.81
2023-04-05T09:42:11.974Z,63.02
2023-04-05T09:43:34.115Z,62.32
2023-04-05T09:45:01.424Z,62.66
2023-04-05T09:46:03.139Z,62.39
2023-04-05T09:47:16.526Z,61.52
2023-04-05T09:48:18.137Z,62.86
2023-04-05T09:49:33.878Z,60.96
2023-04-05T09:50:36.471Z,63.05
2023-04-05T09:51:38.895Z,62.23
2023-04-05T09:52:40.889Z,63.04
2023-04-05T09:54:08.025Z,63.37
2023-04-05T09:55:10.579Z,63.73
2023-04-05T09:56:13.156Z,62.47
2023-04-05T09:57:17.405Z,62.07
2023-04-05T09:58:21.164Z,63.14
2023-04-05T09:59:22.911Z,62.39
2023-04-05T10:00:24.510Z,62.27
2023-04-05T10:01:31.874Z,61.46
2023-04-05T10:02:38.195Z,62.26
2023-04-05T10:03:48.219Z,63.09
2023-04-05T10:04:50.189Z,62.31
2023-04-05T10:05:57.950Z,61.54
2023-04-05T10:06:59.726Z,60.93
2023-04-05T10:08:02.091Z,61.73
2023-04-05T10:09:05.280Z,62.47
2023-04-05T10:10:07.987Z,62.82
2023-04-05T10:11:11.072Z,62.16
2023-04-05T10:12:26.150Z,60.74
2023-04-05T10:13:28.355Z,61.87
2023-04-05T10:14:30.001Z,62.26
2023-04-05T10:15:32.921Z,62.44
2023-04-05T10:16:53.557Z,61.90
2023-04-05T10:18:08.243Z,60.95
2023-04-05T10:19:21.038Z,60.78
2023-04-05T10:20:24.265Z,61.16
2023-04-05T10:21:31.081Z,61.51
2023-04-05T10:23:03.569Z,61.60
2023-04-05T10:24:21.118Z,60.56
2023-04-05T10:25:43.009Z,60.32
2023-04-05T10:27:03.458Z,60.41
2023-04-05T10:28:10.479Z,60.17
2023-04-05T10:29:25.078Z,61.16
2023-04-05T10:30:35.630Z,61.99
2023-04-05T10:31:51.330Z,61.84
2023-04-05T10:33:12.654Z,62.42
2023-04-05T10:34:31.278Z,59.75
2023-04-05T10:35:51.693Z,61.41
2023-04-05T10:37:01.993Z,60.56
2023-04-05T10:38:23.350Z,60.65
2023-04-05T10:39:35.525Z,60.39
2023-04-05T10:40:37.932Z,60.18
2023-04-05T10:41:52.875Z,59.59
2023-04-05T10:42:54.568Z,59.43
2023-04-05T10:43:58.299Z,61.14
2023-04-05T10:45:04.863Z,59.60
2023-04-05T10:46:07.873Z,59.04
2023-04-05T10:47:14.013Z,59.67
2023-04-05T10:48:28.882Z,60.59
2023-04-05T10:49:39.439Z,60.98
2023-04-05T10:50:42.555Z,60.26
2023-04-05T10:51:45.126Z,59.67
2023-04-05T10:52:48.267Z,59.95
2023-04-05T10:53:50.614Z,59.19
2023-04-05T10:54:52.791Z,60.51
2023-04-05T10:55:55.955Z,60.54
2023-04-05T10:56:58.629Z,60.13
2023-04-05T10:58:00.564Z,60.54
2023-04-05T10:59:02.724Z,60.67
2023-04-05T11:00:05.312Z,57.68
2023-04-05T11:01:08.127Z,59.32
2023-04-05T11:02:10.807Z,58.23
2023-04-05T11:03:42.269Z,59.93
2023-04-05T11:04:44.101Z,58.96
2023-04-05T11:05:45.896Z,57.03
2023-04-05T11:06:48.274Z,58.43
2023-04-05T11:07:51.093Z,58.19
2023-04-05T11:09:17.079Z,58.28
2023-04-05T11:10:19.553Z,58.46
2023-04-05T11:11:23.116Z,58.42
2023-04-05T11:12:46.329Z,58.06
2023-04-05T11:13:58.492Z,57.71
2023-04-05T11:15:27.672Z,57.45
2023-04-05T11:16:40.347Z,57.78
2023-04-05T11:17:42.050Z,57.10
2023-04-05T11:18:48.513Z,56.94
2023-04-05T11:19:52.396Z,57.41
2023-04-05T11:21:06.206Z,57.83
2023-04-05T11:22:07.847Z,58.88
2023-04-05T11:23:11.072Z,57.32
2023-04-05T11:24:17.924Z,57.33
2023-04-05T11:25:24.808Z,58.88
2023-04-05T11:26:32.693Z,57.03
2023-04-05T11:27:41.183Z,56.06
2023-04-05T11:28:42.794Z,55.86
2023-04-05T11:29:51.916Z,57.73
2023-04-05T11:30:59.022Z,56.22
2023-04-05T11:32:11.678Z,56.03
2023-04-05T11:33:36.675Z,56.96
2023-04-05T11:34:38.346Z,57.65
2023-04-05T11:35:39.879Z,59.38
2023-04-05T11:36:48.402Z,57.93
2023-04-05T11:38:02.372Z,57.29
2023-04-05T11:39:19.519Z,57.14
2023-04-05T11:40:47.742Z,56.21
2023-04-05T11:41:55.398Z,57.51
2023-04-05T11:43:09.352Z,57.51
2023-04-05T11:44:17.379Z,57.49
2023-04-05T11:45:19.362Z,56.21
2023-04-05T11:46:21.457Z,56.09
2023-04-05T11:47:23.257Z,55.59
2023-04-05T11:48:25.012Z,55.46
2023-04-05T11:49:26.565Z,54.01
2023-04-05T11:50:28.772Z,55.40
2023-04-05T11:51:33.003Z,56.14
2023-04-05T11:52:34.526Z,56.48
2023-04-05T11:53:37.192Z,56.84
2023-04-05T11:54:39.900Z,56.60
2023-04-05T11:55:44.336Z,57.05
2023-04-05T11:56:52.151Z,57.45
2023-04-05T11:57:53.793Z,58.00
2023-04-05T11:58:59.430Z,58.83
2023-04-05T12:00:01.604Z,59.26
2023-04-05T12:01:05.455Z,57.91
2023-04-05T12:02:08.319Z,56.83
2023-04-05T12:03:17.787Z,57.25
2023-04-05T12:04:19.461Z,57.53
2023-04-05T12:05:21.081Z,56.50
2023-04-05T12:06:24.548Z,55.42
2023-04-05T12:07:36.733Z,55.34
2023-04-05T12:08:40.484Z,55.97
2023-04-05T12:10:08.302Z,57.33
2023-04-05T12:11:11.808Z,56.66
2023-04-05T12:12:17.315Z,56.84
2023-04-05T12:13:26.113Z,57.47
2023-04-05T12:14:27.673Z,55.64
2023-04-05T12:15:29.249Z,57.15
2023-04-05T12:16:30.926Z,56.26
2023-04-05T12:17:42.894Z,55.57
2023-04-05T12:18:44.419Z,55.21
2023-04-05T12:19:46.231Z,57.33
2023-04-05T12:20:48.017Z,55.02
2023-04-05T12:21:49.649Z,55.36
2023-04-05T12:22:56.790Z,55.60
2023-04-05T12:23:58.532Z,54.02
2023-04-05T12:25:00.381Z,57.53
2023-04-05T12:26:02.256Z,55.93
2023-04-05T12:27:03.982Z,56.12
2023-04-05T12:28:08.336Z,55.11
2023-04-05T12:29:09.857Z,54.95
2023-04-05T12:30:22.911Z,55.67
2023-04-05T12:31:44.310Z,55.96
2023-04-05T12:32:48.778Z,56.79
2023-04-05T12:33:51.137Z,55.65
2023-04-05T12:34:57.861Z,56.21
2023-04-05T12:36:05.343Z,55.68
2023-04-05T12:37:06.952Z,55.16
2023-04-05T12:38:10.317Z,54.79
2023-04-05T12:39:11.868Z,55.78
2023-04-05T12:40:14.182Z,56.77
2023-04-05T12:41:15.992Z,55.80
2023-04-05T12:42:17.897Z,57.78
2023-04-05T12:43:20.301Z,55.47
2023-04-05T12:44:31.708Z,56.65
2023-04-05T12:45:40.600Z,55.86
2023-04-05T12:46:45.016Z,56.18
2023-04-05T12:47:50.838Z,56.82
2023-04-05T12:48:53.467Z,55.72
2023-04-05T12:49:55.522Z,55.14
2023-04-05T12:50:57.151Z,55.56
2023-04-05T12:52:02.995Z,55.12
2023-04-05T12:53:07.758Z,55.11
2023-04-05T12:54:15.520Z,54.27
2023-04-05T12:55:17.108Z,54.96
2023-04-05T12:56:19.466Z,54.82
2023-04-05T12:57:31.082Z,53.62
2023-04-05T12:58:34.811Z,55.27
2023-04-05T12:59:36.398Z,53.87
2023-04-05T13:00:38.140Z,53.84
2023-04-05T13:01:39.780Z,54.96
2023-04-05T13:02:41.424Z,53.70
2023-04-05T13:03:49.215Z,53.64
2023-04-05T13:04:51.376Z,54.43
2023-04-05T13:05:53.187Z,55.08
2023-04-05T13:06:55.190Z,55.38
2023-04-05T13:07:57.847Z,53.74
2023-04-05T13:08:59.394Z,54.97
2023-04-05T13:10:00.984Z,55.04
2023-04-05T13:11:02.593Z,54.78
2023-04-05T13:12:04.321Z,54.97
2023-04-05T13:13:06.310Z,53.72
2023-04-05T13:14:08.203Z,54.85
2023-04-05T13:15:09.890Z,53.97
2023-04-05T13:16:11.511Z,55.34
2023-04-05T13:17:13.022Z,54.58
2023-04-05T13:18:15.114Z,54.64
2023-04-05T13:19:16.643Z,54.85
2023-04-05T13:20:18.394Z,53.76
2023-04-05T13:21:20.011Z,54.50
2023-04-05T13:22:21.571Z,53.03
2023-04-05T13:23:23.183Z,54.06
2023-04-05T13:24:24.724Z,53.97
2023-04-05T13:25:26.903Z,54.49
2023-04-05T13:26:28.433Z,54.07
2023-04-05T13:27:30.369Z,54.73
2023-04-05T13:28:32.928Z,53.98
2023-04-05T13:29:34.533Z,54.46
2023-04-05T13:30:36.128Z,53.18
2023-04-05T13:31:37.791Z,53.35
2023-04-05T13:32:39.664Z,52.29
2023-04-05T13:33:41.250Z,53.77
2023-04-05T13:34:42.862Z,54.12
2023-04-05T13:35:44.781Z,53.80
2023-04-05T13:36:48.391Z,54.80
2023-04-05T13:37:49.922Z,52.98
2023-04-05T13:38:51.444Z,53.79
2023-04-05T13:39:52.974Z,54.18
2023-04-05T13:40:54.615Z,54.20
2023-04-05T13:41:57.302Z,55.27
2023-04-05T13:42:58.911Z,55.29
2023-04-05T13:44:02.438Z,54.59
2023-04-05T13:45:05.470Z,54.54
2023-04-05T13:46:07.032Z,54.91